Sedavi, Spain
Current Conditions -  °F | °C
As of 10:30 PM on Friday 31 Oct 2014 (Local Time) from LEVC Reporting Station
Broken Clouds Broken Clouds  
Wind Chill: 66°   Ceiling: 1500
Heat Index: 66°   Visibility: 6mi
Dew Point: 63°   Wind: 3mph
Humidity: 88%   Direction: 300°WNW
Pressure: 30.24"   Gusts: NA
Location:  39.43°N, 0.38°W
Report Text: LEVC 312130Z 30003KT 9999 BKN015 19/17 Q1024 NOSIG
Loading
Personal Weather Stations






























Interactive Weather Map
Tropical Storm Tracking
New forecast layout! Learn more

10-Day Weather Forecast

Advertisements
Track Severe Weather on mobile